createdAt,value
2019-03-01T00:02:03.404Z,32.60
2019-03-01T00:05:01.693Z,31.23
2019-03-01T00:07:57.411Z,31.63
2019-03-01T00:10:51.998Z,30.37
2019-03-01T00:13:37.413Z,29.13
2019-03-01T00:16:54.119Z,31.40
2019-03-01T00:20:04.752Z,33.07
2019-03-01T00:22:59.493Z,32.60
2019-03-01T00:25:54.138Z,33.00
2019-03-01T00:29:04.715Z,33.30
2019-03-01T00:32:00.423Z,33.20
2019-03-01T00:35:25.745Z,31.57
2019-03-01T00:38:47.200Z,31.57
2019-03-01T00:41:52.926Z,31.30
2019-03-01T00:44:41.229Z,30.33
2019-03-01T00:47:12.087Z,33.20
2019-03-01T00:49:42.055Z,32.73
2019-03-01T00:52:12.622Z,34.40
2019-03-01T00:54:42.488Z,33.80
2019-03-01T00:57:12.327Z,34.73
2019-03-01T00:59:42.214Z,31.53
2019-03-01T01:02:12.051Z,33.50
2019-03-01T01:04:41.897Z,33.33
2019-03-01T01:07:11.886Z,31.53
2019-03-01T01:09:41.752Z,32.90
2019-03-01T01:12:11.742Z,33.57
2019-03-01T01:14:44.660Z,32.60
2019-03-01T01:17:14.546Z,33.37
2019-03-01T01:19:44.376Z,35.20
2019-03-01T01:22:14.305Z,36.27
2019-03-01T01:24:44.163Z,34.30
2019-03-01T01:27:14.014Z,34.93
2019-03-01T01:29:43.888Z,37.97
2019-03-01T01:32:13.765Z,37.60
2019-03-01T01:34:43.652Z,35.23
2019-03-01T01:37:13.504Z,34.27
2019-03-01T01:39:43.382Z,33.87
2019-03-01T01:42:13.259Z,34.83
2019-03-01T01:44:43.120Z,33.97
2019-03-01T01:47:13.019Z,34.17
2019-03-01T01:49:42.877Z,38.10
2019-03-01T01:52:12.718Z,36.20
2019-03-01T01:54:42.624Z,37.10
2019-03-01T01:57:12.520Z,35.53
2019-03-01T01:59:42.355Z,35.50
2019-03-01T02:02:12.190Z,34.33
2019-03-01T02:04:42.130Z,35.67
2019-03-01T02:07:11.946Z,34.33
2019-03-01T02:09:41.891Z,34.63
2019-03-01T02:12:11.766Z,34.07
2019-03-01T02:14:41.619Z,35.10
2019-03-01T02:17:11.495Z,35.70
2019-03-01T02:19:41.440Z,34.27
2019-03-01T02:22:11.311Z,34.93
2019-03-01T02:24:41.207Z,34.33
2019-03-01T02:27:30.540Z,35.17
2019-03-01T02:30:01.737Z,37.27
2019-03-01T02:32:37.947Z,36.60
2019-03-01T02:35:10.044Z,35.43
2019-03-01T02:37:39.970Z,39.37
2019-03-01T02:40:10.867Z,38.73
2019-03-01T02:42:40.707Z,39.03
2019-03-01T02:45:13.040Z,38.33
2019-03-01T02:47:43.066Z,38.70
2019-03-01T02:50:14.271Z,37.00
2019-03-01T02:52:44.157Z,36.43
2019-03-01T02:55:15.184Z,37.37
2019-03-01T02:57:45.262Z,35.47
2019-03-01T03:00:20.595Z,35.53
2019-03-01T03:02:50.588Z,35.77
2019-03-01T03:05:20.639Z,36.83
2019-03-01T03:07:55.329Z,35.53
2019-03-01T03:10:25.280Z,34.03
2019-03-01T03:12:57.620Z,36.33
2019-03-01T03:15:33.044Z,37.67
2019-03-01T03:18:02.974Z,36.60
2019-03-01T03:20:32.869Z,36.87
2019-03-01T03:23:02.708Z,35.87
2019-03-01T03:25:32.641Z,36.07
2019-03-01T03:28:02.508Z,36.07
2019-03-01T03:30:32.651Z,36.07
2019-03-01T03:33:02.540Z,34.93
2019-03-01T03:35:32.379Z,37.27
2019-03-01T03:38:02.236Z,39.20
2019-03-01T03:40:32.148Z,40.13
2019-03-01T03:43:01.967Z,40.00
2019-03-01T03:45:31.834Z,37.93
2019-03-01T03:48:01.707Z,36.33
2019-03-01T03:50:31.558Z,36.73
2019-03-01T03:53:01.440Z,37.93
2019-03-01T03:55:31.498Z,37.67
2019-03-01T03:58:01.456Z,38.40
2019-03-01T04:00:31.343Z,37.67
2019-03-01T04:03:01.338Z,38.37
2019-03-01T04:05:30.996Z,37.43
2019-03-01T04:08:00.665Z,37.50
2019-03-01T04:10:30.412Z,37.90
2019-03-01T04:13:00.063Z,37.97
2019-03-01T04:15:29.740Z,36.77
2019-03-01T04:17:59.488Z,39.47
2019-03-01T04:20:29.139Z,37.93
2019-03-01T04:22:58.901Z,37.17
2019-03-01T04:25:28.579Z,38.87
2019-03-01T04:27:58.305Z,39.07
2019-03-01T04:30:28.122Z,39.60
2019-03-01T04:32:57.830Z,40.43
2019-03-01T04:35:27.588Z,40.00
2019-03-01T04:37:57.223Z,37.80
2019-03-01T04:40:26.888Z,37.27
2019-03-01T04:42:56.611Z,40.13
2019-03-01T04:45:26.333Z,40.17
2019-03-01T04:47:56.046Z,37.47
2019-03-01T04:50:25.742Z,37.47
2019-03-01T04:52:55.478Z,39.57
2019-03-01T04:55:26.382Z,37.90
2019-03-01T04:57:56.075Z,36.87
2019-03-01T05:00:25.995Z,37.63
2019-03-01T05:02:55.710Z,37.67
2019-03-01T05:05:25.406Z,39.57
2019-03-01T05:07:55.120Z,37.87
2019-03-01T05:10:24.814Z,37.13
2019-03-01T05:12:54.537Z,37.57
2019-03-01T05:15:24.315Z,41.00
2019-03-01T05:17:54.619Z,41.13
2019-03-01T05:20:24.332Z,43.00
2019-03-01T05:22:54.159Z,40.17
2019-03-01T05:25:23.875Z,37.03
2019-03-01T05:27:54.239Z,35.73
2019-03-01T05:30:24.084Z,37.40
2019-03-01T05:32:53.789Z,35.80
2019-03-01T05:35:23.523Z,35.80
2019-03-01T05:37:53.219Z,34.87
2019-03-01T05:40:23.867Z,36.97
2019-03-01T05:42:53.566Z,43.63
2019-03-01T05:45:23.935Z,45.83
2019-03-01T05:47:53.640Z,138.37
2019-03-01T05:50:23.387Z,156.83
2019-03-01T05:52:53.143Z,99.10
2019-03-01T05:55:24.032Z,89.20
2019-03-01T05:58:36.852Z,122.03
2019-03-01T06:01:10.584Z,72.10
2019-03-01T06:03:53.911Z,60.83
2019-03-01T06:06:33.893Z,60.60
2019-03-01T06:09:56.687Z,43.10
2019-03-01T06:13:03.198Z,43.63
2019-03-01T06:15:58.231Z,45.67
2019-03-01T06:19:19.631Z,49.93
2019-03-01T06:22:37.531Z,46.00
2019-03-01T06:25:41.531Z,42.00
2019-03-01T06:28:38.570Z,45.53
2019-03-01T06:31:49.132Z,50.50
2019-03-01T06:34:42.247Z,43.37
2019-03-01T06:37:42.832Z,44.73
2019-03-01T06:41:15.723Z,46.40
2019-03-01T06:44:23.887Z,42.63
2019-03-01T06:47:25.297Z,41.67
2019-03-01T06:50:02.747Z,45.37
2019-03-01T06:52:32.501Z,44.80
2019-03-01T06:55:02.218Z,39.63
2019-03-01T06:57:31.857Z,37.73
2019-03-01T07:00:01.613Z,39.70
2019-03-01T07:02:38.593Z,39.00
2019-03-01T07:05:08.253Z,38.93
2019-03-01T07:07:37.979Z,42.00
2019-03-01T07:10:08.567Z,36.33
2019-03-01T07:12:38.269Z,33.73
2019-03-01T07:15:08.778Z,36.53
2019-03-01T07:17:38.997Z,34.23
2019-03-01T07:20:08.781Z,33.40
2019-03-01T07:22:38.566Z,33.00
2019-03-01T07:25:08.348Z,33.20
2019-03-01T07:27:38.008Z,36.63
2019-03-01T07:30:08.315Z,32.83
2019-03-01T07:32:38.071Z,36.30
2019-03-01T07:35:08.027Z,37.43
2019-03-01T07:37:37.764Z,36.90
2019-03-01T07:40:07.529Z,35.20
2019-03-01T07:42:39.182Z,32.00
2019-03-01T07:45:09.960Z,31.07
2019-03-01T07:47:39.631Z,27.73
2019-03-01T07:50:09.854Z,26.73
2019-03-01T07:52:39.559Z,26.47
2019-03-01T07:55:09.439Z,27.30
2019-03-01T07:57:39.254Z,23.40
2019-03-01T08:00:14.187Z,23.37
2019-03-01T08:02:45.714Z,21.57
2019-03-01T08:05:16.435Z,23.80
2019-03-01T08:07:55.667Z,21.17
2019-03-01T08:10:22.466Z,22.00
2019-03-01T08:12:49.459Z,22.37
2019-03-01T08:15:19.250Z,22.03
2019-03-01T08:17:48.953Z,21.17
2019-03-01T08:20:18.747Z,19.93
2019-03-01T08:22:49.698Z,21.00
2019-03-01T08:25:23.432Z,21.00
2019-03-01T08:27:51.020Z,21.73
2019-03-01T08:30:20.827Z,22.53
2019-03-01T08:32:50.556Z,22.20
2019-03-01T08:35:20.309Z,21.20
2019-03-01T08:37:53.498Z,21.87
2019-03-01T08:40:21.695Z,23.23
2019-03-01T08:42:52.165Z,21.00
2019-03-01T08:45:23.394Z,18.47
2019-03-01T08:47:55.485Z,18.77
2019-03-01T08:50:24.422Z,19.20
2019-03-01T08:52:54.092Z,18.27
2019-03-01T08:55:23.927Z,19.73
2019-03-01T08:57:53.636Z,20.20
2019-03-01T09:00:27.830Z,19.60
2019-03-01T09:02:59.800Z,18.70
2019-03-01T09:05:29.443Z,18.87
2019-03-01T09:07:59.192Z,17.57
2019-03-01T09:10:32.386Z,17.13
2019-03-01T09:13:00.290Z,16.93
2019-03-01T09:15:31.412Z,17.33
2019-03-01T09:18:01.123Z,16.23
2019-03-01T09:20:32.429Z,18.23
2019-03-01T09:23:10.831Z,17.00
2019-03-01T09:25:33.957Z,18.40
2019-03-01T09:28:03.669Z,16.00
2019-03-01T09:30:34.788Z,17.10
2019-03-01T09:33:05.167Z,16.13
2019-03-01T09:35:43.178Z,15.70
2019-03-01T09:38:14.052Z,16.20
2019-03-01T09:40:43.830Z,16.20
2019-03-01T09:43:13.484Z,15.30
2019-03-01T09:45:45.667Z,15.50
2019-03-01T09:48:14.547Z,15.53
2019-03-01T09:50:44.198Z,14.17
2019-03-01T09:53:13.920Z,15.23
2019-03-01T09:55:43.589Z,15.10
2019-03-01T09:58:13.245Z,15.87
2019-03-01T10:00:55.626Z,14.33
2019-03-01T10:03:17.418Z,14.50
2019-03-01T10:05:47.123Z,15.20
2019-03-01T10:08:16.840Z,14.77
2019-03-01T10:10:46.479Z,13.67
2019-03-01T10:13:16.239Z,15.63
2019-03-01T10:15:45.949Z,14.10
2019-03-01T10:18:15.602Z,16.47
2019-03-01T10:20:45.336Z,14.33
2019-03-01T10:23:14.987Z,12.70
2019-03-01T10:25:44.748Z,12.40
2019-03-01T10:28:14.433Z,14.33
2019-03-01T10:30:44.108Z,13.60
2019-03-01T10:33:13.869Z,12.53
2019-03-01T10:35:43.569Z,11.77
2019-03-01T10:38:13.252Z,11.43
2019-03-01T10:40:42.913Z,10.63
2019-03-01T10:43:12.685Z,10.77
2019-03-01T10:45:42.332Z,11.63
2019-03-01T10:48:12.027Z,11.40
2019-03-01T10:50:41.770Z,11.30
2019-03-01T10:53:11.441Z,10.63
2019-03-01T10:55:41.093Z,11.03
2019-03-01T10:58:10.826Z,12.30
2019-03-01T11:00:40.719Z,12.27
2019-03-01T11:03:10.470Z,12.33
2019-03-01T11:05:40.169Z,11.87
2019-03-01T11:08:09.863Z,11.03
2019-03-01T11:10:39.597Z,10.70
2019-03-01T11:13:09.307Z,11.90
2019-03-01T11:15:39.087Z,11.50
2019-03-01T11:18:08.928Z,11.27
2019-03-01T11:20:38.741Z,12.50
2019-03-01T11:23:08.495Z,12.23
2019-03-01T11:25:38.160Z,11.50
2019-03-01T11:28:07.852Z,10.77
2019-03-01T11:30:37.523Z,10.43
2019-03-01T11:33:07.298Z,10.57
2019-03-01T11:35:37.156Z,10.97
2019-03-01T11:38:06.954Z,10.10
2019-03-01T11:40:36.621Z,11.37
2019-03-01T11:43:06.415Z,11.63
2019-03-01T11:45:36.236Z,12.63
2019-03-01T11:48:07.191Z,13.33
2019-03-01T11:50:36.848Z,12.07
2019-03-01T11:53:06.605Z,11.97
2019-03-01T11:55:36.323Z,10.60
2019-03-01T11:58:05.981Z,9.43
2019-03-01T12:00:35.676Z,10.20
2019-03-01T12:03:05.381Z,9.70
2019-03-01T12:05:35.155Z,12.50
2019-03-01T12:08:04.807Z,13.57
2019-03-01T12:10:34.509Z,13.20
2019-03-01T12:13:04.185Z,14.33
2019-03-01T12:15:33.997Z,12.73
2019-03-01T12:18:03.656Z,11.10
2019-03-01T12:20:33.519Z,12.27
2019-03-01T12:23:03.225Z,13.37
2019-03-01T12:25:32.880Z,12.30
2019-03-01T12:28:02.633Z,12.63
2019-03-01T12:30:33.279Z,13.60
2019-03-01T12:33:03.576Z,12.50
2019-03-01T12:35:33.292Z,13.20
2019-03-01T12:38:03.085Z,12.03
2019-03-01T12:40:32.742Z,13.30
2019-03-01T12:43:02.466Z,14.10
2019-03-01T12:45:32.158Z,13.90
2019-03-01T12:48:01.805Z,12.93
2019-03-01T12:50:31.499Z,12.83
2019-03-01T12:53:01.536Z,11.53
2019-03-01T12:55:31.295Z,11.97
2019-03-01T12:58:00.990Z,12.80
2019-03-01T13:00:31.430Z,13.37
2019-03-01T13:03:01.106Z,13.77
2019-03-01T13:05:30.814Z,12.30
2019-03-01T13:08:00.521Z,10.90
2019-03-01T13:10:30.552Z,10.30
2019-03-01T13:13:02.128Z,12.37
2019-03-01T13:15:31.639Z,11.50
2019-03-01T13:18:03.311Z,10.83
2019-03-01T13:20:33.717Z,11.90
2019-03-01T13:23:04.661Z,11.50
2019-03-01T13:25:35.313Z,9.20
2019-03-01T13:28:05.014Z,10.37
2019-03-01T13:30:35.714Z,10.93
2019-03-01T13:33:06.070Z,10.97
2019-03-01T13:35:35.755Z,12.07
2019-03-01T13:38:05.436Z,11.70
2019-03-01T13:40:35.184Z,11.07
2019-03-01T13:43:04.912Z,10.93
2019-03-01T13:45:34.615Z,11.83
2019-03-01T13:48:06.338Z,11.60
2019-03-01T13:50:38.242Z,11.10
2019-03-01T13:53:07.741Z,11.13
2019-03-01T13:55:37.553Z,9.60
2019-03-01T13:58:08.551Z,9.43
2019-03-01T14:00:39.090Z,7.53
2019-03-01T14:03:10.168Z,6.03
2019-03-01T14:05:39.923Z,6.10
2019-03-01T14:08:09.639Z,5.60
2019-03-01T14:10:41.885Z,3.10
2019-03-01T14:13:11.206Z,3.80
2019-03-01T14:15:42.051Z,3.60
2019-03-01T14:18:12.089Z,3.03
2019-03-01T14:20:41.802Z,2.80
2019-03-01T14:23:11.496Z,3.20
2019-03-01T14:25:41.689Z,3.63
2019-03-01T14:28:12.158Z,3.23
2019-03-01T14:30:43.120Z,4.40
2019-03-01T14:33:12.815Z,3.87
2019-03-01T14:35:42.567Z,5.37
2019-03-01T14:38:12.284Z,4.40
2019-03-01T14:40:42.501Z,9.10
2019-03-01T14:43:12.391Z,4.23
2019-03-01T14:46:02.530Z,6.93
2019-03-01T14:48:32.203Z,8.10
2019-03-01T14:51:01.915Z,5.13
2019-03-01T14:53:34.722Z,4.07
2019-03-01T14:56:10.340Z,4.43
2019-03-01T14:58:44.793Z,5.30
2019-03-01T15:01:31.771Z,4.30
2019-03-01T15:04:01.446Z,4.37
2019-03-01T15:06:32.657Z,4.20
2019-03-01T15:09:02.533Z,4.17
2019-03-01T15:11:32.713Z,6.47
2019-03-01T15:14:02.412Z,4.30
2019-03-01T15:16:32.104Z,4.70
2019-03-01T15:19:04.723Z,4.43
2019-03-01T15:21:34.083Z,3.77
2019-03-01T15:24:04.880Z,3.80
2019-03-01T15:26:34.600Z,5.03
2019-03-01T15:29:05.211Z,3.70
2019-03-01T15:31:35.128Z,4.60
2019-03-01T15:34:05.948Z,3.83
2019-03-01T15:36:35.627Z,4.47
2019-03-01T15:39:08.399Z,5.53
2019-03-01T15:41:39.151Z,3.67
2019-03-01T15:44:09.613Z,3.93
2019-03-01T15:46:39.323Z,5.27
2019-03-01T15:49:11.737Z,5.07
2019-03-01T15:51:40.423Z,4.17
2019-03-01T15:54:10.298Z,3.50
2019-03-01T15:56:43.017Z,3.77
2019-03-01T15:59:11.431Z,3.50
2019-03-01T16:01:43.647Z,2.90
2019-03-01T16:04:12.549Z,2.77
2019-03-01T16:06:42.225Z,4.20
2019-03-01T16:09:18.121Z,3.63
2019-03-01T16:11:47.805Z,3.17
2019-03-01T16:14:17.520Z,3.40
2019-03-01T16:16:49.063Z,2.03
2019-03-01T16:19:18.538Z,2.90
2019-03-01T16:21:48.232Z,2.80
2019-03-01T16:24:17.930Z,3.10
2019-03-01T16:26:47.644Z,3.20
2019-03-01T16:29:17.307Z,2.13
2019-03-01T16:31:47.065Z,2.70
2019-03-01T16:34:17.366Z,3.50
2019-03-01T16:36:51.450Z,2.77
2019-03-01T16:39:24.031Z,11.53
2019-03-01T16:41:52.503Z,6.70
2019-03-01T16:44:22.567Z,5.93
2019-03-01T16:46:52.331Z,6.87
2019-03-01T16:49:23.617Z,4.17
2019-03-01T16:51:53.880Z,7.77
2019-03-01T16:54:24.437Z,11.20
2019-03-01T16:56:54.087Z,8.43
2019-03-01T16:59:23.812Z,8.13
2019-03-01T17:01:53.531Z,4.27
2019-03-01T17:04:27.147Z,5.57
2019-03-01T17:06:54.583Z,6.73
2019-03-01T17:09:24.257Z,7.40
2019-03-01T17:11:53.940Z,4.60
2019-03-01T17:14:24.200Z,7.73
2019-03-01T17:16:56.343Z,5.20
2019-03-01T17:19:27.531Z,6.10
2019-03-01T17:21:56.830Z,6.23
2019-03-01T17:24:26.472Z,8.00
2019-03-01T17:26:57.743Z,7.67
2019-03-01T17:29:27.577Z,7.23
2019-03-01T17:31:58.854Z,5.27
2019-03-01T17:34:29.456Z,6.30
2019-03-01T17:36:59.370Z,3.73
2019-03-01T17:39:29.081Z,8.90
2019-03-01T17:41:58.808Z,9.80
2019-03-01T17:44:28.538Z,2.93
2019-03-01T17:46:58.208Z,3.40
2019-03-01T17:49:29.745Z,3.50
2019-03-01T17:51:59.270Z,4.10
2019-03-01T17:54:29.993Z,3.33
2019-03-01T17:56:59.675Z,3.80
2019-03-01T17:59:29.348Z,3.40
2019-03-01T18:01:59.069Z,5.47
2019-03-01T18:04:28.770Z,5.20
2019-03-01T18:06:58.551Z,5.23
2019-03-01T18:09:28.256Z,4.30
2019-03-01T18:11:58.027Z,4.37
2019-03-01T18:14:27.692Z,4.87
2019-03-01T18:17:00.408Z,8.87
2019-03-01T18:19:28.802Z,4.87
2019-03-01T18:21:58.468Z,4.87
2019-03-01T18:24:28.198Z,6.07
2019-03-01T18:26:57.887Z,5.50
2019-03-01T18:29:28.586Z,5.67
2019-03-01T18:31:58.243Z,6.93
2019-03-01T18:34:29.776Z,5.07
2019-03-01T18:36:59.324Z,5.40
2019-03-01T18:39:28.995Z,5.00
2019-03-01T18:41:59.299Z,4.63
2019-03-01T18:44:30.100Z,5.30
2019-03-01T18:46:59.799Z,6.30
2019-03-01T18:49:29.600Z,5.17
2019-03-01T18:51:59.342Z,5.10
2019-03-01T18:54:29.029Z,6.10
2019-03-01T18:57:00.818Z,6.57
2019-03-01T18:59:30.340Z,7.20
2019-03-01T19:02:19.332Z,13.37
2019-03-01T19:04:49.072Z,7.90
2019-03-01T19:07:18.728Z,14.70
2019-03-01T19:09:48.698Z,3.40
2019-03-01T19:12:19.745Z,6.20
2019-03-01T19:14:49.484Z,5.43
2019-03-01T19:17:19.171Z,2.73
2019-03-01T19:19:48.848Z,6.97
2019-03-01T19:22:18.559Z,3.90
2019-03-01T19:24:50.152Z,2.87
2019-03-01T19:27:19.639Z,3.43
2019-03-01T19:29:49.305Z,2.83
2019-03-01T19:32:19.033Z,2.93
2019-03-01T19:34:49.620Z,3.17
2019-03-01T19:37:20.680Z,6.80
2019-03-01T19:39:51.480Z,2.90
2019-03-01T19:42:21.962Z,3.80
2019-03-01T19:44:51.756Z,4.10
2019-03-01T19:47:23.642Z,3.60
2019-03-01T19:49:52.745Z,3.60
2019-03-01T19:52:22.767Z,5.10
2019-03-01T19:54:52.688Z,4.43
2019-03-01T19:57:22.434Z,5.07
2019-03-01T19:59:52.087Z,4.07
2019-03-01T20:02:21.773Z,4.67
2019-03-01T20:04:52.576Z,4.13
2019-03-01T20:07:22.834Z,3.80
2019-03-01T20:09:52.512Z,3.87
2019-03-01T20:12:22.302Z,4.03
2019-03-01T20:14:52.404Z,3.63
2019-03-01T20:17:22.091Z,4.03
2019-03-01T20:19:53.523Z,3.80
2019-03-01T20:22:23.196Z,3.27
2019-03-01T20:24:52.877Z,3.83
2019-03-01T20:27:22.642Z,3.93
2019-03-01T20:29:52.578Z,3.60
2019-03-01T20:32:23.248Z,17.67
2019-03-01T20:34:52.919Z,4.87
2019-03-01T20:37:24.741Z,3.73
2019-03-01T20:39:54.055Z,4.43
2019-03-01T20:42:24.554Z,13.37
2019-03-01T20:44:54.369Z,3.83
2019-03-01T20:47:24.134Z,3.80
2019-03-01T20:49:54.302Z,4.70
2019-03-01T20:52:23.965Z,3.97
2019-03-01T20:54:53.698Z,3.43
2019-03-01T20:57:26.728Z,5.30
2019-03-01T20:59:55.354Z,4.00
2019-03-01T21:02:25.124Z,4.93
2019-03-01T21:04:55.135Z,3.20
2019-03-01T21:07:24.787Z,3.80
2019-03-01T21:09:54.486Z,4.10
2019-03-01T21:12:24.702Z,4.27
2019-03-01T21:14:54.603Z,4.60
2019-03-01T21:17:24.303Z,4.40
2019-03-01T21:19:54.360Z,4.23
2019-03-01T21:22:24.051Z,9.13
2019-03-01T21:24:53.790Z,5.67
2019-03-01T21:27:25.922Z,4.43
2019-03-01T21:29:54.894Z,4.40
2019-03-01T21:32:34.674Z,4.40
2019-03-01T21:35:06.166Z,4.23
2019-03-01T21:37:38.248Z,4.40
2019-03-01T21:40:07.852Z,3.97
2019-03-01T21:42:37.577Z,4.73
2019-03-01T21:45:08.431Z,5.33
2019-03-01T21:47:38.239Z,4.87
2019-03-01T21:50:08.095Z,2.63
2019-03-01T21:52:37.806Z,3.80
2019-03-01T21:55:09.749Z,4.23
2019-03-01T21:57:39.445Z,5.03
2019-03-01T22:00:12.379Z,3.83
2019-03-01T22:02:42.043Z,9.10
2019-03-01T22:05:13.555Z,7.00
2019-03-01T22:07:43.748Z,7.47
2019-03-01T22:10:13.846Z,15.70
2019-03-01T22:12:43.642Z,9.20
2019-03-01T22:15:16.117Z,9.33
2019-03-01T22:17:48.693Z,11.97
2019-03-01T22:20:17.287Z,5.10
2019-03-01T22:22:46.996Z,3.53
2019-03-01T22:25:16.686Z,7.90
2019-03-01T22:27:46.410Z,7.60
2019-03-01T22:30:19.626Z,6.17
2019-03-01T22:32:49.988Z,7.47
2019-03-01T22:35:19.698Z,5.80
2019-03-01T22:37:49.389Z,14.37
2019-03-01T22:40:19.128Z,7.40
2019-03-01T22:42:49.712Z,8.30
2019-03-01T22:45:21.455Z,6.17
2019-03-01T22:47:51.281Z,4.90
2019-03-01T22:50:21.112Z,5.47
2019-03-01T22:52:50.807Z,8.67
2019-03-01T22:55:20.543Z,8.73
2019-03-01T22:57:52.521Z,7.10
2019-03-01T23:01:08.749Z,6.20
2019-03-01T23:03:38.508Z,5.50
2019-03-01T23:06:08.220Z,4.33
2019-03-01T23:08:37.962Z,6.27
2019-03-01T23:11:08.649Z,6.50
2019-03-01T23:13:39.195Z,4.70
2019-03-01T23:16:08.963Z,4.33
2019-03-01T23:18:40.469Z,6.30
2019-03-01T23:21:10.080Z,6.77
2019-03-01T23:23:39.775Z,3.40
2019-03-01T23:26:09.900Z,4.47
2019-03-01T23:28:40.809Z,6.37
2019-03-01T23:31:10.971Z,5.73
2019-03-01T23:33:41.967Z,7.50
2019-03-01T23:36:12.623Z,6.53
2019-03-01T23:38:42.351Z,6.83
2019-03-01T23:41:12.712Z,4.23
2019-03-01T23:43:42.639Z,4.70
2019-03-01T23:46:12.310Z,6.27
2019-03-01T23:48:42.025Z,7.80
2019-03-01T23:51:11.761Z,7.17
2019-03-01T23:53:41.419Z,7.70
2019-03-01T23:56:12.255Z,6.00
2019-03-01T23:58:41.986Z,5.20
